Airfield :
LOGIN :

Register | Disclaimer

   EN    FR    IT 

 










Legend :    VFR   Marginal VFR   IFR   Intensive IFR   Very Intensive IFR
Visi :
Ceiling :
>= 8 km
>= 3000ft
5 to 8 km
1000 to 3000 ft
1500m to 5 km
500 to 1000 ft
800 to 1500m
200 to 500 ft
< 800m
< 200 ft
Symbols :   Thunderstorms  Fog  Heavy snow  Heavy precipitations  Wind > 20 kt
SIGMETs :     Misc.  Thunderstorms  Icing  Turbulence  Mountain Waves  Volcanic Ashes







- Airport Elevation : 459 ft
- IATA code : CER
- Download approach charts


LFRC - Cherbourg / Maupertus

CURRENT METAR :
  • 231730Z AUTO 24023G33KT 9000 DZ OVC005 12/12 Q1018 TEMPO 1500 DZ BR

EXPIRED METARs :
  • 231700Z AUTO 25024KT 9999 DZ OVC005 12/11 Q1018 TEMPO 1500 DZ BR BECMG 20015G25KT
  • 231630Z AUTO 24023KT 5000 -DZ BR OVC005 12/11 Q1018 TEMPO 1500 DZ BR BECMG 20015G25KT
  • 231600Z AUTO 24020KT 4400 DZ BR BKN006 OVC010 12/11 Q1018 TEMPO 1500 DZ BR BKN002 BECMG 20015G25KT
  • 231530Z AUTO 23018KT 4500 -DZ BR OVC005 12/11 Q1018 TEMPO 1500 DZ BR BECMG 20015G25KT
  • 231500Z AUTO 23018KT 3000 -RA BR OVC005 12/11 Q1017 TEMPO DZ BECMG 20015G25KT

TAF TAF LFRC
Valid from the 23 at 15:00 until the 24 at 00:00 UTC


231400Z 2315/2324 20015G25KT 9999 OVC008
TEMPO 2315/2324 3000 DZ OVC004
PROB30
TEMPO 2315/2324 1500 DZ BR BKN002
No reported NOTAMs for that airfield.



MET'MAP, your aeronautical weather chart ! - Copyright ORBIFLY December 2007 - Disclaimer

ORBIFLY MET'MAP TEAM :

Programming & Development : Alexandra Zaïnal
Concept & Development : Baudouin d'Aumeries
Co-Development & Prog : Marc-Olivier Méhu
Technical & hardware support : Manuel Goepfert

Contact : metmap@orbifly.com




SOURCES & CREDITS :

   NOAA